Ballonweer?

Available data for EHGG from the past 2 hours
GRONINGEN/EELDE
Metar
EHGG 170155Z AUTO 20010KT 4600 -RADZ FEW004 SCT005 BKN006 14/13 Q1005 REDZ

01:55 UTC

Wind: 200° 10kt

Visibility: 4600 m

Sky: FEW 400 ft

Temp: 14 deg C / 57.2 deg F

Dewpoint: 13 deg C / 55.4 deg F

Pressure: 1005 hPa

TAF
TAF EHGG 162309Z 1700/1806 19011KT 7000 -RA BKN007 PROB40 TEMPO 1700/1706 4000 RADZ BKN004 BECMG 1705/1708 24008KT 9999 NSW BKN025 PROB40 TEMPO 1712/1804 6000 -SHRA -RA BKN012 FEW020TCU PROB30 1802/1806 6000 BKN008 BECMG 1803/1806 18010KT

Buienradar (tot 2 uur vooruit)

 

KNMI weerbulletin kleine luchtvaart

Klik hier om het weerbulletin te openen in een nieuw tabblad.